Puerto Banus, Marbella

>

This is an optional block (switch it off / on) in the settings - file ($SITE['banners'] = false;)

You can display ads, any other important text or photo’s using text / html or PHP code.

You can place one or more at the top and or bottom and it can all be different for content / size .



Meteosat more information blitzortung!


Radar lluvias  rain snow radar


Visita nuestra red de sitios de meteo:

Documentation for the template used

MeteoibericaRed estaciones Meteorologicas

MeteoclimaticRed estaciones Meteorologicas



Sin Advertencias climatologicas .En este momento tenemos Nivel Verde.    No hay Alarmas

Pagina Historial Weather Underground texto

Diario Resumen January 1, 2018 Unidades:  impérial    Métrico   Tanto
« Anterior Dia
Siguiente Dia »
Diario Semana Mensual Anual Personalizada
  Maxima: Minima: Media:
Temperatura: TemperatureC °F 11.4 °F 14.6 °F
Punto de rocío: DewpointC °F -2.2 °F 6.2 °F
Humedad: Humidity % 32 % 58 %
Velocidad del Viento: WindSpeedKMH mph 0.0 mph 6.9 mph
Ráfagas de viento: WindSpeedGustKMH mph - -
Viento:- - WSW
Pression baro: PressurehPa in 1030.4 in -
Précipitaciones: 0.0 in    
Historical Graphs
 
 
Datos de tabla para January 1, 2018
Tiempo Temperatura Punto de rocío Pression baro Viento Velocidad del Viento Ráfagas de viento Humedad Las precipitaciones Rate ( Hora )
TemperatureC °F DewpointC °F PressurehPa in Calm     Humidity % HourlyPrecipMM in
00:02 17.6 °F 9.7 °F 1030.7 in NNW 13.0 mph 13.0 mph 60 % 0.0 in
00:07 17.9 °F 9.5 °F 1030.7 in North 11.3 mph 11.3 mph 58 % 0.0 in
00:08 17.9 °F 9.5 °F 1030.7 in NNW 14.8 mph 14.8 mph 58 % 0.0 in
00:13 17.9 °F 9.3 °F 1030.7 in NNW 9.3 mph 9.3 mph 57 % 0.0 in
00:14 18.0 °F 9.3 °F 1030.7 in NW 9.3 mph 9.3 mph 57 % 0.0 in
00:18 18.0 °F 9.3 °F 1030.4 in NW 9.3 mph 9.3 mph 57 % 0.0 in
00:23 17.9 °F 9.3 °F 1030.7 in NW 11.1 mph 11.1 mph 57 % 0.0 in
00:24 17.9 °F 9.3 °F 1030.7 in NW 9.3 mph 9.3 mph 57 % 0.0 in
00:25 17.9 °F 9.2 °F 1030.7 in NW 9.7 mph 9.7 mph 57 % 0.0 in
00:29 17.8 °F 9.2 °F 1030.7 in NNW 13.0 mph 13.0 mph 57 % 0.0 in
00:34 17.6 °F 9.7 °F 1030.7 in NE 9.3 mph 9.3 mph 60 % 0.0 in
00:35 17.5 °F 9.7 °F 1030.7 in NE 9.7 mph 9.7 mph 60 % 0.0 in
00:40 17.3 °F 9.2 °F 1030.7 in NNE 1.9 mph   59 % 0.0 in
00:41 17.3 °F 9.2 °F 1030.7 in Calm     59 % 0.0 in
00:42 17.3 °F 9.5 °F 1030.7 in Calm     60 % 0.0 in
00:47 17.3 °F 10.4 °F 1030.7 in ENE 3.7 mph 3.7 mph 64 % 0.0 in
00:48 17.2 °F 10.3 °F 1030.7 in East 3.7 mph 3.7 mph 64 % 0.0 in
00:52 17.1 °F 10.5 °F 1030.7 in ENE 3.2 mph 3.2 mph 65 % 0.0 in
00:55 16.9 °F 10.8 °F 1031.0 in ENE 8.0 mph 8.0 mph 67 % 0.0 in
01:00 16.8 °F 10.8 °F 1030.7 in ENE 5.6 mph 5.6 mph 68 % 0.0 in
01:01 16.7 °F 10.8 °F 1030.7 in ENE 5.6 mph 5.6 mph 68 % 0.0 in
01:06 16.5 °F 10.3 °F 1031.0 in Calm     67 % 0.0 in
01:08 16.5 °F 10.6 °F 1031.0 in Calm     68 % 0.0 in
01:10 16.4 °F 10.5 °F 1031.0 in Calm     68 % 0.0 in
01:14 16.3 °F 10.4 °F 1031.0 in Calm     68 % 0.0 in
01:19 16.3 °F 10.3 °F 1031.0 in NE 5.6 mph 5.6 mph 68 % 0.0 in
01:23 16.2 °F 10.3 °F 1031.0 in NNW 5.6 mph 5.6 mph 68 % 0.0 in
01:28 16.1 °F 10.2 °F 1031.0 in Calm     68 % 0.0 in
01:29 16.1 °F 10.2 °F 1031.0 in NW 3.2 mph 3.2 mph 68 % 0.0 in
01:34 16.1 °F 10.2 °F 1031.0 in Calm     68 % 0.0 in
01:35 16.1 °F 10.2 °F 1031.0 in Calm     68 % 0.0 in
01:40 16.1 °F 10.4 °F 1031.0 in Calm     69 % 0.0 in
01:41 16.1 °F 10.4 °F 1031.0 in Calm     69 % 0.0 in
01:46 16.1 °F 10.4 °F 1031.0 in Calm     69 % 0.0 in
01:47 16.1 °F 10.6 °F 1031.0 in NW 3.2 mph 3.2 mph 70 % 0.0 in
01:52 16.1 °F 10.4 °F 1031.0 in Calm     69 % 0.0 in
01:56 16.1 °F 10.4 °F 1031.0 in NW 6.4 mph 6.4 mph 69 % 0.0 in
01:57 15.9 °F 10.1 °F 1031.0 in North 8.0 mph 8.0 mph 68 % 0.0 in
02:01 15.4 °F 9.3 °F 1031.0 in North 9.7 mph 9.7 mph 67 % 0.0 in
02:04 15.1 °F 9.2 °F 1031.0 in North 8.0 mph 8.0 mph 68 % 0.0 in
02:09 14.8 °F 8.9 °F 1031.0 in North 9.7 mph 9.7 mph 68 % 0.0 in
02:14 14.3 °F 8.7 °F 1031.0 in North 9.3 mph 9.3 mph 69 % 0.0 in
02:16 14.2 °F 8.6 °F 1031.0 in North 9.7 mph 9.7 mph 69 % 0.0 in
02:19 14.1 °F 8.7 °F 1031.0 in NNW 9.3 mph 9.3 mph 70 % 0.0 in
02:22 14.1 °F 8.7 °F 1031.0 in NNW 9.3 mph 9.3 mph 70 % 0.0 in
02:24 14.1 °F 8.7 °F 1031.0 in NNW 7.4 mph 7.4 mph 70 % 0.0 in
02:29 14.1 °F 8.7 °F 1031.0 in NNW 6.4 mph 6.4 mph 70 % 0.0 in
02:30 14.0 °F 8.4 °F 1031.0 in North 8.0 mph 8.0 mph 69 % 0.0 in
02:35 13.8 °F 8.2 °F 1031.0 in NNW 7.4 mph 7.4 mph 69 % 0.0 in
02:36 13.8 °F 8.2 °F 1031.0 in NNW 7.4 mph 7.4 mph 69 % 0.0 in
02:39 13.7 °F 8.1 °F 1031.0 in NNW 5.6 mph 5.6 mph 69 % 0.0 in
02:41 13.8 °F 8.2 °F 1031.0 in NNW 3.7 mph 3.7 mph 69 % 0.0 in
02:46 13.8 °F 7.8 °F 1031.0 in North 6.4 mph 6.4 mph 67 % 0.0 in
02:47 13.8 °F 7.8 °F 1031.0 in North 7.4 mph 7.4 mph 67 % 0.0 in
02:48 13.8 °F 7.8 °F 1031.0 in North 5.6 mph 5.6 mph 67 % 0.0 in
02:53 13.9 °F 7.6 °F 1031.0 in NW 5.6 mph 5.6 mph 66 % 0.0 in
02:58 14.0 °F 7.5 °F 1030.7 in North 7.4 mph 7.4 mph 65 % 0.0 in
02:59 14.1 °F 7.3 °F 1031.0 in North 7.4 mph 7.4 mph 64 % 0.0 in
03:03 14.1 °F 7.3 °F 1031.0 in NNW 5.6 mph 5.6 mph 64 % 0.0 in
03:04 14.1 °F 7.3 °F 1031.0 in NNW 5.6 mph 5.6 mph 64 % 0.0 in
03:05 14.0 °F 7.1 °F 1031.0 in NNW 5.6 mph 5.6 mph 63 % 0.0 in
03:09 14.0 °F 7.1 °F 1031.0 in Calm     63 % 0.0 in
03:10 14.0 °F 7.1 °F 1031.0 in NNW 1.6 mph 1.6 mph 63 % 0.0 in
03:14 13.9 °F 6.8 °F 1031.0 in NNW 5.6 mph 5.6 mph 62 % 0.0 in
03:17 13.9 °F 6.7 °F 1031.0 in Calm     62 % 0.0 in
03:19 13.9 °F 6.7 °F 1031.0 in Calm     62 % 0.0 in
03:24 13.7 °F 6.6 °F 1031.0 in North 8.0 mph 8.0 mph 62 % 0.0 in
03:26 13.7 °F 6.6 °F 1031.0 in North 7.4 mph 7.4 mph 62 % 0.0 in
03:31 13.7 °F 6.1 °F 1031.0 in North 7.4 mph 7.4 mph 60 % 0.0 in
03:32 13.7 °F 6.1 °F 1031.4 in North 8.0 mph 8.0 mph 60 % 0.0 in
03:35 13.7 °F 5.8 °F 1031.4 in NNW 6.4 mph 6.4 mph 59 % 0.0 in
03:38 13.7 °F 5.6 °F 1031.4 in NNW 5.6 mph 5.6 mph 58 % 0.0 in
03:41 13.7 °F 5.3 °F 1031.0 in NNW 5.6 mph 5.6 mph 57 % 0.0 in
03:43 13.7 °F 4.8 °F 1031.0 in NNW 5.6 mph 5.6 mph 55 % 0.0 in
03:47 13.7 °F 4.8 °F 1031.0 in Calm     55 % 0.0 in
03:49 13.8 °F 5.2 °F 1031.4 in Calm     56 % 0.0 in
03:54 13.8 °F 5.2 °F 1031.4 in Calm     56 % 0.0 in
03:55 13.8 °F 4.9 °F 1031.0 in NNW 6.4 mph 6.4 mph 55 % 0.0 in
03:56 13.9 °F 5.8 °F 1031.0 in NW 7.4 mph 7.4 mph 58 % 0.0 in
04:00 14.0 °F 4.3 °F 1031.0 in North 9.3 mph 9.3 mph 52 % 0.0 in
04:05 14.3 °F 3.8 °F 1031.0 in NNW 7.4 mph 7.4 mph 49 % 0.0 in
04:07 14.4 °F 3.5 °F 1031.4 in NNW 7.4 mph 7.4 mph 48 % 0.0 in
04:13 14.6 °F 4.2 °F 1031.4 in NW 4.8 mph 4.8 mph 50 % 0.0 in
04:14 14.6 °F 4.2 °F 1031.4 in NW 5.6 mph 5.6 mph 50 % 0.0 in
04:19 14.5 °F 3.6 °F 1031.4 in North 7.4 mph 7.4 mph 48 % 0.0 in
04:20 14.5 °F 3.6 °F 1031.4 in NNW 7.4 mph 7.4 mph 48 % 0.0 in
04:23 14.4 °F 3.8 °F 1031.4 in WNW 5.6 mph 5.6 mph 49 % 0.0 in
04:26 14.4 °F 3.5 °F 1031.4 in WNW 5.6 mph 5.6 mph 48 % 0.0 in
04:30 14.3 °F 3.8 °F 1031.4 in WNW 3.7 mph 3.7 mph 49 % 0.0 in
04:33 14.3 °F 3.7 °F 1031.4 in WNW 3.7 mph 3.7 mph 49 % 0.0 in
04:38 14.1 °F 3.8 °F 1031.0 in NW 3.7 mph 3.7 mph 50 % 0.0 in
04:43 13.9 °F 3.9 °F 1031.0 in WNW 5.6 mph 5.6 mph 51 % 0.0 in
04:44 13.9 °F 3.9 °F 1031.0 in WNW 5.6 mph 5.6 mph 51 % 0.0 in
04:49 13.7 °F 4.1 °F 1031.0 in NW 5.6 mph 5.6 mph 52 % 0.0 in
04:54 13.6 °F 4.2 °F 1031.0 in West 5.6 mph 5.6 mph 53 % 0.0 in
04:59 13.3 °F 3.7 °F 1031.0 in NW 5.6 mph 5.6 mph 52 % 0.0 in
05:00 13.3 °F 3.4 °F 1031.0 in North 9.3 mph 9.3 mph 51 % 0.0 in
05:05 13.3 °F 3.7 °F 1031.0 in WNW 8.0 mph 8.0 mph 52 % 0.0 in
05:06 13.3 °F 3.9 °F 1031.0 in WNW 7.4 mph 7.4 mph 53 % 0.0 in
05:10 13.3 °F 3.6 °F 1031.0 in NNW 8.0 mph 8.0 mph 52 % 0.0 in
05:15 13.3 °F 2.8 °F 1031.0 in NNW 11.1 mph 11.1 mph 49 % 0.0 in
05:16 13.3 °F 2.8 °F 1031.0 in North 11.1 mph 11.1 mph 49 % 0.0 in
05:19 13.4 °F 2.7 °F 1031.0 in NNE 14.8 mph 14.8 mph 48 % 0.0 in
05:21 13.6 °F 2.7 °F 1031.0 in North 16.7 mph 16.7 mph 48 % 0.0 in
05:26 13.6 °F 2.7 °F 1031.0 in North 9.3 mph 9.3 mph 48 % 0.0 in
05:29 13.5 °F 2.7 °F 1030.7 in North 12.9 mph 12.9 mph 48 % 0.0 in
05:32 13.4 °F 2.7 °F 1030.7 in NNW 13.0 mph 13.0 mph 48 % 0.0 in
05:34 13.4 °F 2.7 °F 1030.7 in NNW 16.7 mph 16.7 mph 48 % 0.0 in
05:37 13.4 °F 2.7 °F 1030.7 in North 14.5 mph 14.5 mph 48 % 0.0 in
05:42 13.3 °F 2.6 °F 1030.7 in North 13.0 mph 13.0 mph 48 % 0.0 in
05:43 13.3 °F 2.6 °F 1030.7 in NNW 18.5 mph 18.5 mph 48 % 0.0 in
05:44 13.3 °F 2.6 °F 1030.7 in North 13.0 mph 13.0 mph 48 % 0.0 in
05:49 13.2 °F 2.4 °F 1030.7 in NNE 16.7 mph 16.7 mph 48 % 0.0 in
05:54 13.2 °F 2.4 °F 1030.7 in NNE 18.5 mph 18.5 mph 48 % 0.0 in
05:57 13.2 °F 2.4 °F 1030.7 in North 16.7 mph 16.7 mph 48 % 0.0 in
06:02 13.1 °F 2.6 °F 1030.7 in North 16.7 mph 16.7 mph 49 % 0.0 in
06:07 13.0 °F 2.5 °F 1030.7 in NNE 18.5 mph 18.5 mph 49 % 0.0 in
06:08 13.0 °F 2.2 °F 1030.7 in North 18.5 mph 18.5 mph 48 % 0.0 in
06:13 12.9 °F 2.5 °F 1030.7 in North 16.7 mph 16.7 mph 49 % 0.0 in
06:15 12.9 °F 2.5 °F 1030.7 in North 13.0 mph 13.0 mph 49 % 0.0 in
06:20 12.8 °F 2.3 °F 1031.0 in North 18.5 mph 18.5 mph 49 % 0.0 in
06:25 12.7 °F 2.3 °F 1031.0 in North 13.0 mph 13.0 mph 49 % 0.0 in
06:26 12.7 °F 2.3 °F 1031.0 in NNE 11.3 mph 11.3 mph 49 % 0.0 in
06:31 12.7 °F 2.2 °F 1031.0 in North 8.0 mph 8.0 mph 49 % 0.0 in
06:32 12.6 °F 2.2 °F 1031.0 in North 9.7 mph 9.7 mph 49 % 0.0 in
06:37 12.6 °F 2.4 °F 1031.0 in North 13.0 mph 13.0 mph 50 % 0.0 in
06:38 12.6 °F 2.1 °F 1031.0 in North 12.9 mph 12.9 mph 49 % 0.0 in
06:42 12.6 °F 2.1 °F 1031.0 in NW 11.1 mph 11.1 mph 49 % 0.0 in
06:46 12.6 °F 2.4 °F 1031.0 in NNW 7.4 mph 7.4 mph 50 % 0.0 in
06:51 12.5 °F 2.6 °F 1031.4 in NNW 5.6 mph 5.6 mph 51 % 0.0 in
06:57 12.4 °F 3.9 °F 1031.4 in NNW 5.6 mph 5.6 mph 56 % 0.0 in
06:58 12.4 °F 3.8 °F 1031.4 in NNW 5.6 mph 5.6 mph 56 % 0.0 in
07:03 12.1 °F 3.1 °F 1031.4 in NNW 5.6 mph 5.6 mph 54 % 0.0 in
07:05 12.1 °F 3.0 °F 1031.4 in NNW 3.2 mph 3.2 mph 54 % 0.0 in
07:10 12.0 °F 2.4 °F 1031.4 in NNW 5.6 mph 5.6 mph 52 % 0.0 in
07:11 12.0 °F 2.7 °F 1031.4 in NNW 5.6 mph 5.6 mph 53 % 0.0 in
07:16 12.0 °F 3.2 °F 1031.4 in NNW 3.7 mph 3.7 mph 55 % 0.0 in
07:21 12.0 °F 2.9 °F 1031.0 in NNW 4.8 mph 4.8 mph 54 % 0.0 in
07:26 11.9 °F 2.6 °F 1031.0 in NNW 5.6 mph 5.6 mph 53 % 0.0 in
07:27 11.9 °F 2.6 °F 1031.0 in NNW 5.6 mph 5.6 mph 53 % 0.0 in
07:32 11.9 °F 2.6 °F 1031.4 in North 6.4 mph 6.6 mph 53 % 0.0 in
07:34 11.8 °F 2.6 °F 1031.4 in North 9.3 mph 9.3 mph 53 % 0.0 in
07:36 11.8 °F 2.5 °F 1031.4 in North 9.3 mph 9.3 mph 53 % 0.0 in
07:39 11.7 °F 2.4 °F 1031.4 in North 7.4 mph 7.4 mph 53 % 0.0 in
07:44 11.6 °F 2.3 °F 1031.7 in North 9.3 mph 9.3 mph 53 % 0.0 in
07:45 11.5 °F 2.2 °F 1031.7 in North 7.4 mph 7.4 mph 53 % 0.0 in
07:48 11.4 °F 2.2 °F 1031.7 in NNW 7.4 mph 7.4 mph 53 % 0.0 in
07:52 11.5 °F 2.2 °F 1031.7 in NNW 7.4 mph 7.4 mph 53 % 0.0 in
07:55 11.6 °F 2.6 °F 1031.7 in NNE 8.0 mph 8.0 mph 54 % 0.0 in
08:00 11.6 °F 2.3 °F 1031.7 in North 5.6 mph 5.6 mph 53 % 0.0 in
08:05 11.5 °F 2.2 °F 1031.7 in North 8.0 mph 8.0 mph 53 % 0.0 in
08:08 11.4 °F 2.2 °F 1031.7 in NNW 8.0 mph 8.0 mph 53 % 0.0 in
08:10 11.5 °F 2.2 °F 1031.7 in NNW 7.4 mph 7.4 mph 53 % 0.0 in
08:15 11.5 °F 2.2 °F 1031.7 in North 5.6 mph 5.6 mph 53 % 0.0 in
08:20 11.6 °F 2.1 °F 1031.7 in North 6.4 mph 6.4 mph 52 % 0.0 in
08:23 11.7 °F 2.1 °F 1031.7 in NNW 5.6 mph 5.6 mph 52 % 0.0 in
08:28 11.8 °F 2.8 °F 1031.7 in NNW 5.6 mph 5.6 mph 54 % 0.0 in
08:32 11.8 °F 3.3 °F 1032.1 in West 5.6 mph 5.6 mph 56 % 0.0 in
08:34 11.8 °F 3.6 °F 1032.1 in West 5.6 mph 5.6 mph 57 % 0.0 in
08:39 11.8 °F 3.8 °F 1032.1 in West 5.6 mph 5.6 mph 58 % 0.0 in
08:40 11.8 °F 3.8 °F 1032.1 in West 5.6 mph 5.6 mph 58 % 0.0 in
08:45 11.7 °F 3.7 °F 1032.1 in WNW 5.6 mph 5.6 mph 58 % 0.0 in
08:50 11.7 °F 3.7 °F 1032.1 in NNW 5.6 mph 5.6 mph 58 % 0.0 in
08:51 11.7 °F 3.7 °F 1032.1 in North 5.6 mph 5.6 mph 58 % 0.0 in
08:56 11.7 °F 3.5 °F 1032.1 in NNW 9.7 mph 9.7 mph 57 % 0.0 in
08:57 11.7 °F 3.5 °F 1032.1 in NNW 9.7 mph 9.7 mph 57 % 0.0 in
09:02 12.3 °F 2.9 °F 1032.4 in NNW 9.3 mph 9.3 mph 53 % 0.0 in
09:07 12.7 °F 2.8 °F 1032.1 in NNW 14.8 mph 14.8 mph 51 % 0.0 in
09:12 12.9 °F 2.8 °F 1032.4 in WNW 11.1 mph 11.1 mph 50 % 0.0 in
09:15 13.0 °F 2.8 °F 1032.4 in North 7.4 mph 7.4 mph 50 % 0.0 in
09:20 13.0 °F 2.8 °F 1032.4 in North 7.4 mph 7.4 mph 50 % 0.0 in
09:25 12.8 °F 2.7 °F 1032.4 in NNW 5.6 mph 5.6 mph 50 % 0.0 in
09:26 12.8 °F 2.4 °F 1032.4 in North 11.1 mph 11.1 mph 49 % 0.0 in
09:31 12.9 °F 2.1 °F 1032.7 in NNW 7.4 mph 7.4 mph 48 % 0.0 in
09:36 13.1 °F 2.3 °F 1032.7 in NNE 11.1 mph 11.1 mph 48 % 0.0 in
09:41 13.1 °F 2.0 °F 1032.4 in NNE 5.6 mph 5.6 mph 47 % 0.0 in
09:46 13.2 °F 2.1 °F 1032.7 in NNE 5.6 mph 5.6 mph 47 % 0.0 in
09:48 13.2 °F 2.2 °F 1032.7 in NNE 5.6 mph 5.6 mph 47 % 0.0 in
09:52 13.3 °F 2.2 °F 1033.1 in North 8.0 mph 8.0 mph 47 % 0.0 in
09:57 13.4 °F 2.3 °F 1033.1 in North 6.4 mph 6.4 mph 47 % 0.0 in
10:02 13.6 °F 2.4 °F 1033.1 in North 5.6 mph 5.6 mph 47 % 0.0 in
10:03 13.6 °F 2.7 °F 1033.1 in North 5.6 mph 5.6 mph 48 % 0.0 in
10:08 13.8 °F 2.9 °F 1033.1 in North 5.6 mph 5.6 mph 48 % 0.0 in
10:12 14.1 °F 3.2 °F 1033.1 in North 5.6 mph 5.6 mph 48 % 0.0 in
10:14 14.1 °F 3.3 °F 1033.1 in North 5.6 mph 5.6 mph 48 % 0.0 in
10:19 14.3 °F 3.8 °F 1033.1 in North 3.7 mph 3.7 mph 49 % 0.0 in
10:20 14.4 °F 3.8 °F 1033.1 in North 3.7 mph 3.7 mph 49 % 0.0 in
10:21 14.4 °F 3.8 °F 1033.1 in North 5.6 mph 5.6 mph 49 % 0.0 in
10:26 14.6 °F 3.7 °F 1033.1 in North 3.7 mph 3.7 mph 48 % 0.0 in
10:31 14.7 °F 3.5 °F 1033.4 in North 3.7 mph 3.7 mph 47 % 0.0 in
10:33 14.8 °F 3.3 °F 1033.4 in North 3.7 mph 3.7 mph 46 % 0.0 in
10:38 14.9 °F 3.1 °F 1033.4 in North 3.7 mph 3.7 mph 45 % 0.0 in
10:40 15.0 °F 3.4 °F 1033.4 in North 5.6 mph 5.6 mph 46 % 0.0 in
10:43 15.1 °F 3.6 °F 1033.7 in North 7.4 mph 7.4 mph 46 % 0.0 in
10:45 15.2 °F 3.7 °F 1033.7 in North 7.4 mph 7.4 mph 46 % 0.0 in
10:50 15.4 °F 3.8 °F 1033.7 in NNE 5.6 mph 5.6 mph 46 % 0.0 in
10:51 15.4 °F 3.9 °F 1033.7 in NNE 3.7 mph 3.7 mph 46 % 0.0 in
10:56 15.6 °F 4.3 °F 1033.7 in Calm     47 % 0.0 in
11:01 15.8 °F 4.2 °F 1033.7 in Calm     46 % 0.0 in
11:05 15.8 °F 4.2 °F 1033.7 in Calm     46 % 0.0 in
11:08 15.8 °F 4.8 °F 1033.7 in NE 5.6 mph 5.6 mph 48 % 0.0 in
11:13 15.7 °F 4.7 °F 1033.7 in Calm     48 % 0.0 in
11:17 15.8 °F 5.4 °F 1033.7 in Calm     50 % 0.0 in
11:19 15.9 °F 5.2 °F 1033.7 in Calm     49 % 0.0 in
11:22 16.0 °F 6.2 °F 1033.7 in NE 4.8 mph 4.8 mph 52 % 0.0 in
11:24 16.1 °F 7.0 °F 1034.1 in NE 5.6 mph 5.6 mph 55 % 0.0 in
11:29 16.2 °F 6.6 °F 1033.7 in Calm     53 % 0.0 in
11:32 16.3 °F 6.4 °F 1033.7 in Calm     52 % 0.0 in
11:37 16.5 °F 7.2 °F 1033.7 in ENE 5.6 mph 5.6 mph 54 % 0.0 in
11:42 16.6 °F 7.7 °F 1033.7 in ENE 5.6 mph 5.6 mph 56 % 0.0 in
11:43 16.6 °F 8.0 °F 1033.7 in ENE 5.6 mph 5.6 mph 57 % 0.0 in
11:48 16.5 °F 7.7 °F 1033.7 in ENE 1.9 mph   56 % 0.0 in
11:51 16.6 °F 8.3 °F 1033.7 in East 5.6 mph 5.6 mph 58 % 0.0 in
11:55 16.5 °F 8.7 °F 1033.7 in South 6.4 mph 6.4 mph 60 % 0.0 in
11:56 16.5 °F 8.9 °F 1033.7 in South 5.6 mph 5.8 mph 61 % 0.0 in
12:01 16.4 °F 9.1 °F 1033.7 in South 3.7 mph 3.7 mph 62 % 0.0 in
12:06 16.3 °F 8.6 °F 1033.7 in South 3.7 mph 3.7 mph 60 % 0.0 in
12:09 16.3 °F 8.3 °F 1033.7 in South 3.7 mph 3.7 mph 59 % 0.0 in
12:12 16.4 °F 8.9 °F 1033.7 in South 3.2 mph 3.2 mph 61 % 0.0 in
12:14 16.5 °F 8.7 °F 1033.7 in South 3.7 mph 3.7 mph 60 % 0.0 in
12:19 16.6 °F 9.6 °F 1033.7 in South 3.7 mph 3.7 mph 63 % 0.0 in
12:21 16.7 °F 9.8 °F 1033.7 in South 3.7 mph 3.7 mph 64 % 0.0 in
12:25 16.7 °F 9.9 °F 1033.4 in South 3.7 mph 3.7 mph 64 % 0.0 in
12:30 16.7 °F 9.9 °F 1033.4 in South 3.7 mph 3.7 mph 64 % 0.0 in
12:31 16.7 °F 9.8 °F 1033.4 in South 4.8 mph 4.8 mph 64 % 0.0 in
12:36 16.6 °F 9.1 °F 1033.4 in SSW 6.4 mph 6.4 mph 61 % 0.0 in
12:37 16.6 °F 9.0 °F 1033.4 in SSW 6.4 mph 6.4 mph 61 % 0.0 in
12:43 16.5 °F 9.7 °F 1033.4 in SW 6.4 mph 6.4 mph 64 % 0.0 in
12:48 16.3 °F 9.7 °F 1033.1 in WSW 5.6 mph 5.6 mph 65 % 0.0 in
12:49 16.3 °F 9.7 °F 1033.1 in WSW 5.6 mph 5.6 mph 65 % 0.0 in
12:54 16.3 °F 9.9 °F 1033.4 in SW 9.3 mph 9.3 mph 66 % 0.0 in
12:58 16.3 °F 10.1 °F 1033.4 in SW 7.4 mph 7.7 mph 67 % 0.0 in
13:01 16.2 °F 10.5 °F 1033.4 in SW 7.4 mph 7.4 mph 69 % 0.0 in
13:06 16.1 °F 10.2 °F 1033.1 in SW 9.3 mph 9.3 mph 68 % 0.0 in
13:09 16.0 °F 10.3 °F 1033.1 in SW 9.3 mph 9.3 mph 69 % 0.0 in
13:11 15.9 °F 10.3 °F 1033.1 in WSW 11.3 mph 11.3 mph 69 % 0.0 in
13:14 15.9 °F 10.5 °F 1033.1 in SW 13.0 mph 13.0 mph 70 % 0.0 in
13:19 15.9 °F 10.7 °F 1032.7 in WSW 11.3 mph 11.3 mph 71 % 0.0 in
13:20 15.9 °F 10.7 °F 1032.7 in WSW 11.3 mph 11.3 mph 71 % 0.0 in
13:25 15.9 °F 11.1 °F 1032.7 in WSW 9.7 mph 9.7 mph 73 % 0.0 in
13:27 15.9 °F 11.1 °F 1032.7 in WSW 9.7 mph 9.7 mph 73 % 0.0 in
13:31 15.8 °F 11.2 °F 1032.7 in WSW 11.1 mph 11.1 mph 74 % 0.0 in
13:36 15.8 °F 11.2 °F 1032.7 in SW 9.7 mph 9.7 mph 74 % 0.0 in
13:41 15.7 °F 11.3 °F 1032.7 in WSW 13.0 mph 13.0 mph 75 % 0.0 in
13:46 15.6 °F 11.2 °F 1032.7 in WSW 9.7 mph 9.7 mph 75 % 0.0 in
13:51 15.4 °F 10.8 °F 1032.4 in WSW 7.4 mph 7.4 mph 74 % 0.0 in
13:52 15.4 °F 10.8 °F 1032.4 in WSW 9.7 mph 9.7 mph 74 % 0.0 in
13:55 15.3 °F 10.4 °F 1032.4 in WSW 9.7 mph 9.7 mph 73 % 0.0 in
13:57 15.2 °F 10.4 °F 1032.4 in WSW 11.1 mph 11.1 mph 73 % 0.0 in
14:02 15.2 °F 10.2 °F 1032.4 in SW 11.1 mph 11.1 mph 72 % 0.0 in
14:07 15.3 °F 10.1 °F 1032.4 in WSW 13.0 mph 13.0 mph 71 % 0.0 in
14:08 15.3 °F 9.8 °F 1032.4 in WSW 13.0 mph 13.0 mph 70 % 0.0 in
14:13 15.2 °F 9.6 °F 1032.1 in WSW 9.7 mph 9.7 mph 69 % 0.0 in
14:15 15.2 °F 9.3 °F 1032.1 in WSW 9.3 mph 9.3 mph 68 % 0.0 in
14:18 15.1 °F 8.8 °F 1032.1 in WSW 9.3 mph 9.3 mph 66 % 0.0 in
14:22 15.3 °F 9.2 °F 1032.1 in SW 11.1 mph 11.1 mph 67 % 0.0 in
14:24 15.4 °F 9.5 °F 1032.1 in SW 9.7 mph 9.7 mph 68 % 0.0 in
14:27 15.5 °F 9.6 °F 1032.1 in WSW 11.1 mph 11.1 mph 68 % 0.0 in
14:30 15.4 °F 9.3 °F 1032.1 in WSW 11.1 mph 11.1 mph 67 % 0.0 in
14:34 15.4 °F 9.3 °F 1031.7 in WSW 9.3 mph 9.3 mph 67 % 0.0 in
14:38 15.5 °F 8.9 °F 1031.7 in WSW 9.3 mph 9.3 mph 65 % 0.0 in
14:40 15.6 °F 8.8 °F 1031.7 in WSW 8.0 mph 8.0 mph 64 % 0.0 in
14:43 15.8 °F 8.7 °F 1031.7 in SW 9.7 mph 10.0 mph 63 % 0.0 in
14:48 16.0 °F 9.4 °F 1031.7 in SW 9.3 mph 9.3 mph 65 % 0.0 in
14:50 16.0 °F 9.2 °F 1031.7 in WSW 9.3 mph 9.3 mph 64 % 0.0 in
14:51 16.0 °F 9.2 °F 1031.7 in WSW 7.4 mph 7.4 mph 64 % 0.0 in
14:56 15.9 °F 8.7 °F 1031.4 in WSW 8.0 mph 8.0 mph 62 % 0.0 in
14:59 15.9 °F 8.7 °F 1031.4 in WSW 7.4 mph 7.4 mph 62 % 0.0 in
15:04 16.1 °F 9.5 °F 1031.7 in WSW 7.4 mph 7.4 mph 65 % 0.0 in
15:06 16.1 °F 9.3 °F 1031.7 in SW 7.4 mph 7.4 mph 64 % 0.0 in
15:11 16.1 °F 9.3 °F 1031.4 in WSW 9.7 mph 9.7 mph 64 % 0.0 in
15:16 16.1 °F 9.9 °F 1031.0 in WSW 7.4 mph 7.4 mph 67 % 0.0 in
15:19 15.9 °F 9.6 °F 1031.0 in WSW 8.0 mph 8.0 mph 66 % 0.0 in
15:20 15.9 °F 9.6 °F 1031.0 in WSW 7.4 mph 7.4 mph 66 % 0.0 in
15:25 15.9 °F 9.3 °F 1031.4 in SW 9.3 mph 9.3 mph 65 % 0.0 in
15:26 15.9 °F 9.3 °F 1031.4 in SW 11.1 mph 11.1 mph 65 % 0.0 in
15:31 15.9 °F 10.1 °F 1031.4 in SW 6.4 mph 6.4 mph 68 % 0.0 in
15:36 15.8 °F 9.7 °F 1031.4 in SW 5.6 mph 5.6 mph 67 % 0.0 in
15:37 15.8 °F 9.7 °F 1031.0 in SW 5.6 mph 5.6 mph 67 % 0.0 in
15:42 15.8 °F 9.7 °F 1031.0 in SW 6.4 mph 6.4 mph 67 % 0.0 in
15:43 15.8 °F 9.5 °F 1031.0 in SW 5.6 mph 5.6 mph 66 % 0.0 in
15:48 15.9 °F 9.6 °F 1031.0 in SW 6.4 mph 6.4 mph 66 % 0.0 in
15:53 15.9 °F 9.4 °F 1031.0 in SW 5.6 mph 5.6 mph 65 % 0.0 in
15:58 16.1 °F 9.5 °F 1031.0 in SW 5.6 mph 5.6 mph 65 % 0.0 in
15:59 16.1 °F 9.3 °F 1031.0 in SW 5.6 mph 5.6 mph 64 % 0.0 in
16:04 16.3 °F 9.3 °F 1031.0 in SW 5.6 mph 5.6 mph 63 % 0.0 in
16:05 16.4 °F 9.3 °F 1031.0 in SW 6.4 mph 6.4 mph 63 % 0.0 in
16:07 16.5 °F 9.9 °F 1030.7 in SW 8.0 mph 8.0 mph 65 % 0.0 in
16:12 16.6 °F 11.1 °F 1030.7 in SW 9.3 mph 9.3 mph 70 % 0.0 in
16:13 16.6 °F 11.1 °F 1030.7 in SW 9.3 mph 9.3 mph 70 % 0.0 in
16:15 16.6 °F 11.3 °F 1030.7 in SW 4.8 mph 9.7 mph 71 % 0.0 in
16:20 16.4 °F 10.9 °F 1030.7 in SW 7.4 mph 7.4 mph 70 % 0.0 in
16:21 16.4 °F 10.9 °F 1030.7 in SW 9.3 mph 9.3 mph 70 % 0.0 in
16:22 16.4 °F 10.9 °F 1030.7 in SW 8.0 mph 8.0 mph 70 % 0.0 in
16:27 16.3 °F 11.1 °F 1030.7 in SW 7.4 mph 7.4 mph 71 % 0.0 in
16:28 16.3 °F 11.1 °F 1030.7 in SW 8.0 mph 8.0 mph 71 % 0.0 in
16:33 16.3 °F 11.5 °F 1030.7 in SW 5.6 mph 5.6 mph 73 % 0.0 in
16:37 16.3 °F 11.5 °F 1030.7 in SW 6.4 mph 6.4 mph 73 % 0.0 in
16:41 16.1 °F 10.8 °F 1030.7 in WSW 7.4 mph 7.4 mph 71 % 0.0 in
16:42 16.1 °F 10.8 °F 1030.7 in WSW 7.4 mph 7.4 mph 71 % 0.0 in
16:46 16.1 °F 10.8 °F 1030.7 in WSW 5.6 mph 5.6 mph 71 % 0.0 in
16:50 16.1 °F 10.2 °F 1030.7 in WSW 5.6 mph 5.6 mph 68 % 0.0 in
16:52 16.1 °F 10.2 °F 1031.0 in WSW 5.6 mph 5.6 mph 68 % 0.0 in
16:57 16.3 °F 10.1 °F 1031.0 in WSW 8.0 mph 8.0 mph 67 % 0.0 in
17:00 16.3 °F 10.4 °F 1031.0 in WSW 5.6 mph 5.6 mph 68 % 0.0 in
17:01 16.3 °F 10.4 °F 1031.0 in WSW 5.6 mph 5.6 mph 68 % 0.0 in
17:05 16.4 °F 10.7 °F 1031.0 in WSW 7.4 mph 7.4 mph 69 % 0.0 in
17:10 16.4 °F 10.9 °F 1031.0 in WSW 5.6 mph 5.6 mph 70 % 0.0 in
17:11 16.4 °F 10.9 °F 1031.0 in WSW 5.6 mph 5.6 mph 70 % 0.0 in
17:16 16.3 °F 10.8 °F 1031.0 in WSW 5.6 mph 5.6 mph 70 % 0.0 in
17:17 16.3 °F 10.8 °F 1031.0 in WSW 5.6 mph 5.6 mph 70 % 0.0 in
17:22 16.2 °F 10.9 °F 1031.0 in WSW 8.0 mph 8.0 mph 71 % 0.0 in
17:23 16.2 °F 10.9 °F 1031.0 in WSW 7.4 mph 7.4 mph 71 % 0.0 in
17:28 16.2 °F 10.9 °F 1031.4 in WSW 8.0 mph 8.0 mph 71 % 0.0 in
17:29 16.1 °F 10.8 °F 1031.4 in WSW 7.4 mph 7.4 mph 71 % 0.0 in
17:34 16.0 °F 10.3 °F 1031.4 in WSW 6.4 mph 6.4 mph 69 % 0.0 in
17:36 16.0 °F 10.1 °F 1031.4 in WSW 5.6 mph 5.6 mph 68 % 0.0 in
17:38 15.9 °F 9.8 °F 1031.4 in WSW 6.4 mph 6.4 mph 67 % 0.0 in
17:43 15.9 °F 9.4 °F 1031.0 in WSW 6.4 mph 6.4 mph 65 % 0.0 in
17:44 16.0 °F 9.7 °F 1031.0 in WSW 5.6 mph 5.6 mph 66 % 0.0 in
17:49 16.2 °F 10.7 °F 1031.0 in WSW 6.4 mph 6.4 mph 70 % 0.0 in
17:54 16.2 °F 10.9 °F 1031.0 in WSW 6.4 mph 6.4 mph 71 % 0.0 in
17:58 16.1 °F 10.6 °F 1031.0 in WSW 7.4 mph 7.4 mph 70 % 0.0 in
18:01 16.0 °F 10.6 °F 1031.0 in WSW 9.3 mph 9.3 mph 70 % 0.0 in
18:04 15.9 °F 10.3 °F 1031.0 in WSW 8.0 mph 8.0 mph 69 % 0.0 in
18:06 15.8 °F 9.9 °F 1031.0 in WSW 9.3 mph 9.3 mph 68 % 0.0 in
18:11 15.7 °F 9.4 °F 1031.0 in WSW 13.0 mph 13.0 mph 66 % 0.0 in
18:12 15.7 °F 9.2 °F 1031.0 in WSW 11.1 mph 11.1 mph 65 % 0.0 in
18:17 15.7 °F 9.3 °F 1031.0 in West 5.6 mph 5.6 mph 66 % 0.0 in
18:19 15.7 °F 9.3 °F 1031.0 in West 5.6 mph 5.6 mph 66 % 0.0 in
18:22 15.6 °F 9.1 °F 1031.0 in Calm     65 % 0.0 in
18:27 15.6 °F 9.9 °F 1031.4 in Calm     69 % 0.0 in
18:28 15.6 °F 9.9 °F 1031.4 in Calm     69 % 0.0 in
18:33 15.4 °F 9.9 °F 1031.0 in Calm     70 % 0.0 in
18:36 15.3 °F 9.8 °F 1031.0 in Calm     70 % 0.0 in
18:37 15.3 °F 9.8 °F 1031.4 in Calm     70 % 0.0 in
18:42 15.2 °F 9.7 °F 1031.0 in NW 5.6 mph 5.6 mph 70 % 0.0 in
18:44 15.1 °F 9.4 °F 1031.0 in NNW 5.6 mph 5.6 mph 69 % 0.0 in
18:48 14.9 °F 9.1 °F 1031.0 in NNW 5.6 mph 5.6 mph 68 % 0.0 in
18:49 14.9 °F 9.2 °F 1031.0 in NNW 5.6 mph 5.6 mph 69 % 0.0 in
18:54 14.7 °F 8.6 °F 1031.0 in North 7.4 mph 7.4 mph 67 % 0.0 in
18:55 14.7 °F 8.6 °F 1031.0 in North 7.4 mph 7.4 mph 67 % 0.0 in
19:00 14.5 °F 8.2 °F 1031.4 in North 5.6 mph 5.6 mph 66 % 0.0 in
19:04 14.4 °F 8.1 °F 1031.4 in North 5.6 mph 5.6 mph 66 % 0.0 in
19:05 14.4 °F 8.3 °F 1031.4 in North 5.6 mph 5.6 mph 67 % 0.0 in
19:10 14.4 °F 8.4 °F 1031.0 in Calm     67 % 0.0 in
19:11 14.4 °F 8.4 °F 1031.0 in Calm     67 % 0.0 in
19:16 14.3 °F 8.5 °F 1031.0 in Calm     68 % 0.0 in
19:19 14.3 °F 8.4 °F 1031.4 in Calm     68 % 0.0 in
19:23 14.2 °F 8.3 °F 1031.0 in North 5.6 mph 5.6 mph 68 % 0.0 in
19:26 14.0 °F 8.2 °F 1031.0 in North 8.0 mph 8.0 mph 68 % 0.0 in
19:31 13.8 °F 7.8 °F 1031.4 in North 8.0 mph 8.0 mph 67 % 0.0 in
19:32 13.7 °F 7.7 °F 1031.4 in North 9.3 mph 9.3 mph 67 % 0.0 in
19:34 13.7 °F 7.7 °F 1031.4 in North 9.7 mph 9.7 mph 67 % 0.0 in
19:38 13.6 °F 7.4 °F 1031.7 in North 9.3 mph 9.3 mph 66 % 0.0 in
19:43 13.6 °F 7.3 °F 1031.7 in North 7.4 mph 7.6 mph 66 % 0.0 in
19:48 13.5 °F 6.8 °F 1031.4 in NNW 5.6 mph 5.6 mph 64 % 0.0 in
19:49 13.5 °F 6.8 °F 1031.4 in NNW 6.4 mph 6.4 mph 64 % 0.0 in
19:50 13.5 °F 6.8 °F 1031.4 in NNW 5.6 mph 5.6 mph 64 % 0.0 in
19:55 13.7 °F 6.7 °F 1031.4 in North 7.4 mph 7.4 mph 63 % 0.0 in
19:57 13.7 °F 7.1 °F 1031.4 in North 7.4 mph 7.4 mph 64 % 0.0 in
20:02 13.7 °F 6.5 °F 1031.4 in North 7.4 mph 7.4 mph 62 % 0.0 in
20:04 13.7 °F 6.5 °F 1031.4 in NNW 7.4 mph 7.4 mph 62 % 0.0 in
20:09 13.6 °F 5.0 °F 1031.7 in NNW 11.3 mph 11.3 mph 56 % 0.0 in
20:14 13.9 °F 4.7 °F 1031.7 in NNW 12.9 mph 12.9 mph 54 % 0.0 in
20:15 13.9 °F 4.4 °F 1031.7 in NNW 13.0 mph 13.0 mph 53 % 0.0 in
20:20 13.8 °F 4.1 °F 1031.7 in North 13.0 mph 13.0 mph 52 % 0.0 in
20:22 13.8 °F 3.5 °F 1031.7 in North 16.7 mph 16.7 mph 50 % 0.0 in
20:25 13.8 °F 3.3 °F 1031.7 in NNW 13.0 mph 13.0 mph 49 % 0.0 in
20:28 13.8 °F 3.3 °F 1031.7 in North 13.0 mph 13.0 mph 49 % 0.0 in
20:30 13.8 °F 3.3 °F 1031.7 in North 11.1 mph 11.1 mph 49 % 0.0 in
20:35 13.8 °F 2.9 °F 1032.1 in North 11.3 mph 11.3 mph 48 % 0.0 in
20:36 13.8 °F 2.9 °F 1031.7 in North 11.1 mph 11.1 mph 48 % 0.0 in
20:41 13.7 °F 2.9 °F 1032.1 in North 11.1 mph 11.1 mph 48 % 0.0 in
20:45 13.7 °F 3.4 °F 1032.1 in ENE 9.3 mph 9.3 mph 50 % 0.0 in
20:46 13.6 °F 3.6 °F 1032.1 in NE 7.4 mph 7.4 mph 51 % 0.0 in
20:51 13.3 °F 3.6 °F 1032.1 in NNE 7.4 mph 7.4 mph 52 % 0.0 in
20:52 13.3 °F 3.3 °F 1032.1 in NNE 7.4 mph 7.4 mph 51 % 0.0 in
20:57 13.1 °F 3.2 °F 1032.1 in North 5.6 mph 5.6 mph 51 % 0.0 in
20:58 13.1 °F 3.2 °F 1032.1 in North 5.6 mph 5.6 mph 51 % 0.0 in
21:03 13.0 °F 2.8 °F 1032.4 in North 8.0 mph 8.0 mph 50 % 0.0 in
21:05 13.0 °F 2.8 °F 1032.4 in North 9.3 mph 9.3 mph 50 % 0.0 in
21:10 13.1 °F 3.2 °F 1032.4 in North 5.6 mph 5.6 mph 51 % 0.0 in
21:15 13.3 °F 3.9 °F 1032.4 in North 5.6 mph 5.6 mph 53 % 0.0 in
21:16 13.3 °F 3.9 °F 1032.4 in North 6.4 mph 6.4 mph 53 % 0.0 in
21:21 13.4 °F 2.9 °F 1032.4 in North 7.4 mph 7.4 mph 49 % 0.0 in
21:23 13.4 °F 3.2 °F 1032.4 in North 5.6 mph 5.6 mph 50 % 0.0 in
21:26 13.4 °F 2.7 °F 1032.4 in North 11.1 mph 11.1 mph 48 % 0.0 in
21:31 13.5 °F 2.1 °F 1032.4 in NNE 7.4 mph 7.4 mph 46 % 0.0 in
21:33 13.5 °F 1.8 °F 1032.4 in North 6.4 mph 6.4 mph 45 % 0.0 in
21:38 13.4 °F 1.7 °F 1032.4 in NNE 5.6 mph 5.6 mph 45 % 0.0 in
21:43 13.3 °F 1.6 °F 1032.4 in North 8.0 mph 8.0 mph 45 % 0.0 in
21:44 13.3 °F 1.6 °F 1032.4 in North 7.4 mph 7.4 mph 45 % 0.0 in
21:49 13.2 °F 1.2 °F 1032.4 in North 3.7 mph 3.7 mph 44 % 0.0 in
21:54 13.2 °F 0.2 °F 1032.1 in NNW 5.6 mph 5.6 mph 41 % 0.0 in
21:55 13.3 °F 0.3 °F 1032.1 in NNW 5.6 mph 5.6 mph 41 % 0.0 in
22:00 13.6 °F -0.2 °F 1032.1 in North 11.1 mph 11.1 mph 39 % 0.0 in
22:04 13.7 °F -0.7 °F 1032.1 in NNW 7.4 mph 7.4 mph 37 % 0.0 in
22:05 13.8 °F -0.7 °F 1032.4 in NNW 7.4 mph 7.4 mph 37 % 0.0 in
22:10 14.0 °F -1.6 °F 1032.4 in NNW 11.1 mph 11.1 mph 34 % 0.0 in
22:15 14.2 °F -1.9 °F 1032.4 in NNW 9.3 mph 9.3 mph 33 % 0.0 in
22:20 14.3 °F -2.2 °F 1032.4 in North 4.8 mph 11.3 mph 32 % 0.0 in
22:23 14.4 °F -2.1 °F 1032.4 in North 5.6 mph 5.6 mph 32 % 0.0 in
22:26 14.4 °F -2.1 °F 1032.4 in North 5.6 mph 5.6 mph 32 % 0.0 in
22:31 14.3 °F -0.2 °F 1032.4 in North 3.7 mph 3.7 mph 37 % 0.0 in
22:32 14.4 °F 0.9 °F 1032.4 in North 3.7 mph 3.7 mph 40 % 0.0 in
22:34 14.4 °F 2.3 °F 1032.4 in NNW 5.6 mph 5.6 mph 44 % 0.0 in
22:37 14.3 °F 3.4 °F 1032.4 in NNW 3.2 mph 3.2 mph 48 % 0.0 in
22:42 14.3 °F 4.3 °F 1032.4 in NNW 1.9 mph 1.9 mph 51 % 0.0 in
22:43 14.3 °F 3.7 °F 1032.4 in NNW 1.9 mph 1.9 mph 49 % 0.0 in
22:48 14.1 °F 2.3 °F 1032.4 in NNW 1.9 mph 1.9 mph 45 % 0.0 in
22:51 14.0 °F -0.1 °F 1032.1 in NNW 4.8 mph 4.8 mph 38 % 0.0 in
22:56 13.9 °F -0.2 °F 1032.4 in NNE 5.6 mph 5.6 mph 38 % 0.0 in
23:01 13.7 °F -0.3 °F 1032.4 in North 5.6 mph 5.6 mph 38 % 0.0 in
23:05 13.7 °F -0.3 °F 1032.4 in NNW 7.4 mph 7.4 mph 38 % 0.0 in
23:07 13.7 °F -0.3 °F 1032.4 in NNW 5.6 mph 5.6 mph 38 % 0.0 in
23:12 13.8 °F -0.3 °F 1032.4 in NNW 5.6 mph 5.6 mph 38 % 0.0 in
23:14 13.8 °F -0.3 °F 1032.4 in NNW 5.6 mph 5.6 mph 38 % 0.0 in
23:18 13.8 °F 0.4 °F 1032.4 in NNW 3.7 mph 3.7 mph 40 % 0.0 in
23:21 13.8 °F -0.3 °F 1032.4 in NNW 1.9 mph 1.9 mph 38 % 0.0 in
23:25 13.8 °F 0.1 °F 1032.4 in NNW 3.7 mph 3.7 mph 39 % 0.0 in
23:30 14.0 °F -0.5 °F 1032.4 in NNW 3.7 mph 3.7 mph 37 % 0.0 in
23:31 14.1 °F -0.4 °F 1032.4 in NNW 3.7 mph 3.7 mph 37 % 0.0 in
23:36 14.3 °F -0.6 °F 1032.4 in NNW 5.6 mph 5.6 mph 36 % 0.0 in
23:39 14.4 °F 0.3 °F 1032.4 in Calm     38 % 0.0 in
23:44 14.3 °F 2.2 °F 1032.4 in NNW 5.6 mph 5.6 mph 44 % 0.0 in
23:49 14.2 °F 4.4 °F 1032.7 in NNW 3.7 mph 3.7 mph 52 % 0.0 in
23:50 14.2 °F 4.4 °F 1032.7 in NNW 3.7 mph 3.7 mph 52 % 0.0 in
23:54 13.9 °F 3.1 °F 1032.7 in Calm     48 % 0.0 in
23:55 13.9 °F 3.1 °F 1032.7 in Calm     48 % 0.0 in
Puerto Banus, Marbella
Elogios de Weather Underground - 2.75 mb

Guión original por  Jim McMurry - jmcmurry@mwt.net Adaptado para la plantilla por  Wim van der Kuil - Leuven-Template.eu

Usted encontrará nuestra información del tiempo también en:

Weather Underground

Iberian Peninsula Weather Network